sensor_id;sensor_type;location;lat;lon;timestamp;pressure;altitude;pressure_sealevel;temperature;humidity
47706;BME280;33471;52.104;1.318;2023-02-28T00:01:20;102976.29;;;3.56;52.44
47706;BME280;33471;52.104;1.318;2023-02-28T00:03:47;102974.73;;;3.55;51.58
47706;BME280;33471;52.104;1.318;2023-02-28T00:06:14;102977.83;;;3.97;51.52
47706;BME280;33471;52.104;1.318;2023-02-28T00:08:42;102974.03;;;3.48;52.41
47706;BME280;33471;52.104;1.318;2023-02-28T00:11:11;102970.92;;;4.15;50.88
47706;BME280;33471;52.104;1.318;2023-02-28T00:13:42;102971.54;;;3.84;51.22
47706;BME280;33471;52.104;1.318;2023-02-28T00:16:12;102968.60;;;4.14;50.92
47706;BME280;33471;52.104;1.318;2023-02-28T00:18:40;102968.21;;;4.14;50.73
47706;BME280;33471;52.104;1.318;2023-02-28T00:21:08;102971.23;;;4.01;51.43
47706;BME280;33471;52.104;1.318;2023-02-28T00:23:36;102969.74;;;4.03;51.31
47706;BME280;33471;52.104;1.318;2023-02-28T00:26:03;102965.11;;;4.31;50.70
47706;BME280;33471;52.104;1.318;2023-02-28T00:28:31;102971.11;;;3.90;51.38
47706;BME280;33471;52.104;1.318;2023-02-28T00:30:58;102968.51;;;4.45;50.65
47706;BME280;33471;52.104;1.318;2023-02-28T00:33:26;102973.70;;;3.51;52.52
47706;BME280;33471;52.104;1.318;2023-02-28T00:36:03;102966.09;;;4.27;50.04
47706;BME280;33471;52.104;1.318;2023-02-28T00:38:31;102971.43;;;4.32;51.19
47706;BME280;33471;52.104;1.318;2023-02-28T00:40:59;102972.67;;;4.23;50.36
47706;BME280;33471;52.104;1.318;2023-02-28T00:43:26;102975.17;;;3.99;52.01
47706;BME280;33471;52.104;1.318;2023-02-28T00:45:53;102971.87;;;3.99;51.06
47706;BME280;33471;52.104;1.318;2023-02-28T00:48:21;102971.43;;;3.97;50.83
47706;BME280;33471;52.104;1.318;2023-02-28T00:50:48;102978.69;;;2.84;53.65
47706;BME280;33471;52.104;1.318;2023-02-28T00:53:16;102971.11;;;4.28;51.11
47706;BME280;33471;52.104;1.318;2023-02-28T00:55:43;102970.68;;;4.04;51.29
47706;BME280;33471;52.104;1.318;2023-02-28T00:58:10;102966.47;;;4.36;50.53
47706;BME280;33471;52.104;1.318;2023-02-28T01:00:38;102972.10;;;3.59;51.54
47706;BME280;33471;52.104;1.318;2023-02-28T01:03:06;102971.43;;;4.08;49.92
47706;BME280;33471;52.104;1.318;2023-02-28T01:05:33;102978.88;;;3.32;52.92
47706;BME280;33471;52.104;1.318;2023-02-28T01:08:00;102969.09;;;4.03;51.83
47706;BME280;33471;52.104;1.318;2023-02-28T01:10:28;102965.76;;;3.60;52.28
47706;BME280;33471;52.104;1.318;2023-02-28T01:12:55;102965.36;;;4.23;52.08
47706;BME280;33471;52.104;1.318;2023-02-28T01:15:22;102967.72;;;3.85;52.40
47706;BME280;33471;52.104;1.318;2023-02-28T01:17:49;102963.23;;;4.00;51.59
47706;BME280;33471;52.104;1.318;2023-02-28T01:20:17;102962.94;;;4.27;51.36
47706;BME280;33471;52.104;1.318;2023-02-28T01:22:44;102960.73;;;4.25;51.40
47706;BME280;33471;52.104;1.318;2023-02-28T01:25:11;102960.86;;;4.16;51.57
47706;BME280;33471;52.104;1.318;2023-02-28T01:27:38;102965.12;;;3.66;52.64
47706;BME280;33471;52.104;1.318;2023-02-28T01:30:07;102968.87;;;2.67;54.51
47706;BME280;33471;52.104;1.318;2023-02-28T01:32:34;102960.32;;;3.92;52.61
47706;BME280;33471;52.104;1.318;2023-02-28T01:35:01;102957.82;;;4.40;50.66
47706;BME280;33471;52.104;1.318;2023-02-28T01:37:29;102958.10;;;4.18;51.56
47706;BME280;33471;52.104;1.318;2023-02-28T01:39:56;102958.20;;;3.53;52.28
47706;BME280;33471;52.104;1.318;2023-02-28T01:42:23;102951.49;;;3.94;52.07
47706;BME280;33471;52.104;1.318;2023-02-28T01:45:03;102947.30;;;3.64;52.59
47706;BME280;33471;52.104;1.318;2023-02-28T01:47:34;102943.92;;;4.31;51.74
47706;BME280;33471;52.104;1.318;2023-02-28T01:50:07;102946.13;;;3.63;51.24
47706;BME280;33471;52.104;1.318;2023-02-28T01:52:36;102948.49;;;3.64;52.72
47706;BME280;33471;52.104;1.318;2023-02-28T01:55:07;102945.94;;;3.62;52.31
47706;BME280;33471;52.104;1.318;2023-02-28T01:57:39;102941.71;;;3.84;51.86
47706;BME280;33471;52.104;1.318;2023-02-28T02:00:12;102939.49;;;3.66;51.88
47706;BME280;33471;52.104;1.318;2023-02-28T02:02:42;102938.16;;;3.68;51.65
47706;BME280;33471;52.104;1.318;2023-02-28T02:05:14;102936.02;;;4.29;51.17
47706;BME280;33471;52.104;1.318;2023-02-28T02:07:44;102941.60;;;3.54;51.87
47706;BME280;33471;52.104;1.318;2023-02-28T02:10:14;102940.51;;;3.48;52.77
47706;BME280;33471;52.104;1.318;2023-02-28T02:12:56;102939.10;;;3.45;53.10
47706;BME280;33471;52.104;1.318;2023-02-28T02:15:33;102933.12;;;3.70;52.16
47706;BME280;33471;52.104;1.318;2023-02-28T02:18:06;102927.47;;;3.70;52.78
47706;BME280;33471;52.104;1.318;2023-02-28T02:22:05;102936.22;;;3.83;53.54
47706;BME280;33471;52.104;1.318;2023-02-28T02:24:49;102938.01;;;3.43;54.08
47706;BME280;33471;52.104;1.318;2023-02-28T02:27:38;102927.13;;;3.56;52.70
47706;BME280;33471;52.104;1.318;2023-02-28T02:30:32;102934.49;;;2.84;55.21
47706;BME280;33471;52.104;1.318;2023-02-28T02:34:02;102930.73;;;4.90;51.66
47706;BME280;33471;52.104;1.318;2023-02-28T02:36:35;102932.48;;;3.73;53.08
47706;BME280;33471;52.104;1.318;2023-02-28T02:39:11;102934.16;;;4.10;52.14
47706;BME280;33471;52.104;1.318;2023-02-28T02:41:47;102934.13;;;3.42;53.01
47706;BME280;33471;52.104;1.318;2023-02-28T02:44:22;102932.70;;;3.57;53.66
47706;BME280;33471;52.104;1.318;2023-02-28T02:47:02;102928.60;;;3.37;53.82
47706;BME280;33471;52.104;1.318;2023-02-28T02:49:32;102935.60;;;3.18;54.37
47706;BME280;33471;52.104;1.318;2023-02-28T02:52:03;102928.67;;;3.63;52.39
47706;BME280;33471;52.104;1.318;2023-02-28T02:54:34;102927.69;;;3.75;53.64
47706;BME280;33471;52.104;1.318;2023-02-28T02:57:06;102935.66;;;3.23;54.18
47706;BME280;33471;52.104;1.318;2023-02-28T02:59:35;102931.86;;;3.95;52.67
47706;BME280;33471;52.104;1.318;2023-02-28T03:02:07;102937.01;;;3.23;53.64
47706;BME280;33471;52.104;1.318;2023-02-28T03:04:42;102932.62;;;3.90;51.81
47706;BME280;33471;52.104;1.318;2023-02-28T03:07:10;102937.42;;;3.63;53.03
47706;BME280;33471;52.104;1.318;2023-02-28T03:09:37;102930.34;;;4.29;51.64
47706;BME280;33471;52.104;1.318;2023-02-28T03:12:09;102932.99;;;3.31;54.02
47706;BME280;33471;52.104;1.318;2023-02-28T03:14:52;102938.31;;;3.52;53.76
47706;BME280;33471;52.104;1.318;2023-02-28T03:17:31;102932.74;;;3.44;53.61
47706;BME280;33471;52.104;1.318;2023-02-28T03:20:11;102928.27;;;3.88;53.09
47706;BME280;33471;52.104;1.318;2023-02-28T03:22:51;102934.69;;;3.82;52.56
47706;BME280;33471;52.104;1.318;2023-02-28T03:25:28;102935.91;;;5.05;50.64
47706;BME280;33471;52.104;1.318;2023-02-28T03:28:02;102930.73;;;4.08;53.31
47706;BME280;33471;52.104;1.318;2023-02-28T03:30:39;102927.53;;;5.28;50.07
47706;BME280;33471;52.104;1.318;2023-02-28T03:33:11;102928.92;;;5.30;50.35
47706;BME280;33471;52.104;1.318;2023-02-28T03:35:43;102932.99;;;3.96;51.93
47706;BME280;33471;52.104;1.318;2023-02-28T03:38:16;102930.29;;;4.67;52.08
47706;BME280;33471;52.104;1.318;2023-02-28T03:40:48;102936.31;;;4.45;52.05
47706;BME280;33471;52.104;1.318;2023-02-28T03:43:21;102930.21;;;5.73;49.19
47706;BME280;33471;52.104;1.318;2023-02-28T03:45:50;102935.67;;;4.51;50.41
47706;BME280;33471;52.104;1.318;2023-02-28T03:48:21;102937.32;;;4.71;50.92
47706;BME280;33471;52.104;1.318;2023-02-28T03:50:54;102938.12;;;4.14;51.09
47706;BME280;33471;52.104;1.318;2023-02-28T03:53:27;102942.79;;;4.95;50.32
47706;BME280;33471;52.104;1.318;2023-02-28T03:56:01;102945.46;;;5.15;50.03
47706;BME280;33471;52.104;1.318;2023-02-28T03:58:35;102945.46;;;5.09;49.03
47706;BME280;33471;52.104;1.318;2023-02-28T04:01:08;102946.85;;;4.69;50.48
47706;BME280;33471;52.104;1.318;2023-02-28T04:03:36;102950.21;;;5.09;50.07
47706;BME280;33471;52.104;1.318;2023-02-28T04:06:07;102947.61;;;5.54;49.55
47706;BME280;33471;52.104;1.318;2023-02-28T04:08:34;102947.41;;;5.16;49.97
47706;BME280;33471;52.104;1.318;2023-02-28T04:11:06;102950.17;;;5.46;48.55
47706;BME280;33471;52.104;1.318;2023-02-28T04:13:39;102950.95;;;5.28;48.96
47706;BME280;33471;52.104;1.318;2023-02-28T04:16:07;102949.52;;;5.61;48.61
47706;BME280;33471;52.104;1.318;2023-02-28T04:18:34;102952.34;;;5.11;49.94
47706;BME280;33471;52.104;1.318;2023-02-28T04:21:01;102953.16;;;5.13;49.47
47706;BME280;33471;52.104;1.318;2023-02-28T04:23:30;102953.71;;;4.91;49.49
47706;BME280;33471;52.104;1.318;2023-02-28T04:25:58;102954.06;;;4.84;49.41
47706;BME280;33471;52.104;1.318;2023-02-28T04:28:25;102955.56;;;5.23;49.29
47706;BME280;33471;52.104;1.318;2023-02-28T04:30:55;102955.00;;;4.86;49.95
47706;BME280;33471;52.104;1.318;2023-02-28T04:33:22;102953.48;;;5.27;49.15
47706;BME280;33471;52.104;1.318;2023-02-28T04:35:58;102955.61;;;4.54;49.85
47706;BME280;33471;52.104;1.318;2023-02-28T04:38:25;102957.43;;;5.30;48.78
47706;BME280;33471;52.104;1.318;2023-02-28T04:40:53;102954.75;;;4.56;49.87
47706;BME280;33471;52.104;1.318;2023-02-28T04:43:20;102957.12;;;5.54;49.03
47706;BME280;33471;52.104;1.318;2023-02-28T04:45:48;102957.35;;;5.45;48.09
47706;BME280;33471;52.104;1.318;2023-02-28T04:48:20;102963.10;;;5.39;48.71
47706;BME280;33471;52.104;1.318;2023-02-28T04:50:47;102965.28;;;4.98;49.18
47706;BME280;33471;52.104;1.318;2023-02-28T04:53:15;102962.33;;;5.21;49.30
47706;BME280;33471;52.104;1.318;2023-02-28T04:55:42;102963.84;;;4.96;48.77
47706;BME280;33471;52.104;1.318;2023-02-28T04:58:09;102968.04;;;5.30;48.39
47706;BME280;33471;52.104;1.318;2023-02-28T05:00:36;102973.89;;;5.49;48.44
47706;BME280;33471;52.104;1.318;2023-02-28T05:03:03;102977.27;;;4.57;50.41
47706;BME280;33471;52.104;1.318;2023-02-28T05:05:30;102975.97;;;5.02;49.55
47706;BME280;33471;52.104;1.318;2023-02-28T05:07:58;102976.05;;;5.25;49.17
47706;BME280;33471;52.104;1.318;2023-02-28T05:10:25;102976.47;;;5.34;48.99
47706;BME280;33471;52.104;1.318;2023-02-28T05:12:52;102979.78;;;4.60;50.81
47706;BME280;33471;52.104;1.318;2023-02-28T05:15:19;102978.62;;;5.19;49.20
47706;BME280;33471;52.104;1.318;2023-02-28T05:17:46;102978.63;;;5.22;49.33
47706;BME280;33471;52.104;1.318;2023-02-28T05:20:13;102976.73;;;4.96;49.91
47706;BME280;33471;52.104;1.318;2023-02-28T05:22:41;102975.50;;;4.99;49.62
47706;BME280;33471;52.104;1.318;2023-02-28T05:25:10;102972.84;;;5.07;50.86
47706;BME280;33471;52.104;1.318;2023-02-28T05:27:39;102971.89;;;5.06;50.84
47706;BME280;33471;52.104;1.318;2023-02-28T05:30:08;102971.55;;;5.02;51.14
47706;BME280;33471;52.104;1.318;2023-02-28T05:32:35;102968.42;;;5.52;49.73
47706;BME280;33471;52.104;1.318;2023-02-28T05:35:03;102968.04;;;4.85;50.56
47706;BME280;33471;52.104;1.318;2023-02-28T05:37:31;102968.83;;;4.08;52.80
47706;BME280;33471;52.104;1.318;2023-02-28T05:39:58;102972.51;;;3.97;52.34
47706;BME280;33471;52.104;1.318;2023-02-28T05:42:25;102973.02;;;5.43;50.43
47706;BME280;33471;52.104;1.318;2023-02-28T05:44:52;102973.40;;;5.27;50.20
47706;BME280;33471;52.104;1.318;2023-02-28T05:47:20;102971.52;;;5.49;49.25
47706;BME280;33471;52.104;1.318;2023-02-28T05:49:48;102968.33;;;5.37;49.16
47706;BME280;33471;52.104;1.318;2023-02-28T05:52:15;102972.01;;;5.10;50.97
47706;BME280;33471;52.104;1.318;2023-02-28T05:54:42;102969.80;;;4.02;51.76
47706;BME280;33471;52.104;1.318;2023-02-28T05:57:09;102969.61;;;5.11;51.10
47706;BME280;33471;52.104;1.318;2023-02-28T05:59:37;102968.11;;;4.74;51.24
47706;BME280;33471;52.104;1.318;2023-02-28T06:02:04;102963.73;;;5.00;51.26
47706;BME280;33471;52.104;1.318;2023-02-28T06:04:31;102962.75;;;5.00;51.18
47706;BME280;33471;52.104;1.318;2023-02-28T06:06:58;102963.80;;;4.85;50.98
47706;BME280;33471;52.104;1.318;2023-02-28T06:09:25;102960.71;;;4.25;52.12
47706;BME280;33471;52.104;1.318;2023-02-28T06:11:52;102955.78;;;5.24;49.73
47706;BME280;33471;52.104;1.318;2023-02-28T06:14:20;102956.08;;;4.72;51.70
47706;BME280;33471;52.104;1.318;2023-02-28T06:16:48;102950.66;;;4.94;50.94
47706;BME280;33471;52.104;1.318;2023-02-28T06:19:15;102947.64;;;5.08;50.01
47706;BME280;33471;52.104;1.318;2023-02-28T06:21:42;102948.82;;;4.65;50.34
47706;BME280;33471;52.104;1.318;2023-02-28T06:24:10;102953.50;;;4.77;49.84
47706;BME280;33471;52.104;1.318;2023-02-28T06:26:38;102953.41;;;4.34;50.89
47706;BME280;33471;52.104;1.318;2023-02-28T06:29:05;102950.45;;;4.88;50.56
47706;BME280;33471;52.104;1.318;2023-02-28T06:31:32;102957.55;;;3.57;53.54
47706;BME280;33471;52.104;1.318;2023-02-28T06:34:00;102953.66;;;4.65;51.12
47706;BME280;33471;52.104;1.318;2023-02-28T06:36:27;102956.38;;;4.55;51.67
47706;BME280;33471;52.104;1.318;2023-02-28T06:38:54;102958.92;;;4.45;50.68
47706;BME280;33471;52.104;1.318;2023-02-28T06:41:22;102963.80;;;4.41;50.60
47706;BME280;33471;52.104;1.318;2023-02-28T06:43:50;102969.32;;;4.63;50.54
47706;BME280;33471;52.104;1.318;2023-02-28T06:46:17;102968.10;;;4.24;52.56
47706;BME280;33471;52.104;1.318;2023-02-28T06:48:46;102969.68;;;3.68;53.27
47706;BME280;33471;52.104;1.318;2023-02-28T06:51:15;102967.37;;;4.41;52.45
47706;BME280;33471;52.104;1.318;2023-02-28T06:53:43;102971.95;;;3.34;54.21
47706;BME280;33471;52.104;1.318;2023-02-28T06:56:12;102970.02;;;4.55;51.85
47706;BME280;33471;52.104;1.318;2023-02-28T06:58:40;102968.28;;;4.45;51.72
47706;BME280;33471;52.104;1.318;2023-02-28T07:01:09;102967.83;;;4.35;52.19
47706;BME280;33471;52.104;1.318;2023-02-28T07:03:36;102970.88;;;4.47;51.46
47706;BME280;33471;52.104;1.318;2023-02-28T07:06:05;102974.81;;;3.85;53.62
47706;BME280;33471;52.104;1.318;2023-02-28T07:08:33;102969.70;;;4.24;52.65
47706;BME280;33471;52.104;1.318;2023-02-28T07:11:01;102975.23;;;4.67;52.40
47706;BME280;33471;52.104;1.318;2023-02-28T07:13:28;102975.30;;;4.60;52.26
47706;BME280;33471;52.104;1.318;2023-02-28T07:15:56;102975.71;;;4.06;53.77
47706;BME280;33471;52.104;1.318;2023-02-28T07:18:23;102974.89;;;4.32;52.50
47706;BME280;33471;52.104;1.318;2023-02-28T07:20:52;102973.68;;;4.74;52.89
47706;BME280;33471;52.104;1.318;2023-02-28T07:23:19;102972.92;;;4.48;52.84
47706;BME280;33471;52.104;1.318;2023-02-28T07:25:47;102973.03;;;5.11;51.16
47706;BME280;33471;52.104;1.318;2023-02-28T07:28:16;102968.56;;;4.47;52.96
47706;BME280;33471;52.104;1.318;2023-02-28T07:30:43;102968.41;;;4.17;53.40
47706;BME280;33471;52.104;1.318;2023-02-28T07:33:10;102974.30;;;4.26;53.06
47706;BME280;33471;52.104;1.318;2023-02-28T07:35:38;102970.03;;;5.87;50.88
47706;BME280;33471;52.104;1.318;2023-02-28T07:38:06;102971.17;;;5.67;50.73
47706;BME280;33471;52.104;1.318;2023-02-28T07:40:33;102971.25;;;5.30;50.96
47706;BME280;33471;52.104;1.318;2023-02-28T07:43:01;102963.92;;;5.88;50.07
47706;BME280;33471;52.104;1.318;2023-02-28T07:45:29;102963.21;;;6.15;50.00
47706;BME280;33471;52.104;1.318;2023-02-28T07:47:56;102969.11;;;5.39;50.24
47706;BME280;33471;52.104;1.318;2023-02-28T07:50:24;102967.65;;;5.44;50.43
47706;BME280;33471;52.104;1.318;2023-02-28T07:52:51;102965.45;;;6.11;49.67
47706;BME280;33471;52.104;1.318;2023-02-28T07:55:18;102973.49;;;4.52;53.01
47706;BME280;33471;52.104;1.318;2023-02-28T07:57:46;102969.00;;;5.45;51.15
47706;BME280;33471;52.104;1.318;2023-02-28T08:00:13;102968.22;;;6.33;49.30
47706;BME280;33471;52.104;1.318;2023-02-28T08:02:41;102972.82;;;6.08;49.10
47706;BME280;33471;52.104;1.318;2023-02-28T08:05:08;102977.13;;;6.71;47.79
47706;BME280;33471;52.104;1.318;2023-02-28T08:07:36;102982.04;;;6.60;48.16
47706;BME280;33471;52.104;1.318;2023-02-28T08:10:09;102977.48;;;5.96;50.15
47706;BME280;33471;52.104;1.318;2023-02-28T08:12:36;102976.53;;;7.48;47.46
47706;BME280;33471;52.104;1.318;2023-02-28T08:15:04;102973.45;;;7.15;47.93
47706;BME280;33471;52.104;1.318;2023-02-28T08:17:31;102978.60;;;6.90;46.66
47706;BME280;33471;52.104;1.318;2023-02-28T08:19:59;102980.15;;;7.08;46.37
47706;BME280;33471;52.104;1.318;2023-02-28T08:22:26;102976.31;;;6.83;47.18
47706;BME280;33471;52.104;1.318;2023-02-28T08:24:53;102976.43;;;7.40;46.66
47706;BME280;33471;52.104;1.318;2023-02-28T08:27:20;102974.35;;;7.49;46.21
47706;BME280;33471;52.104;1.318;2023-02-28T08:29:47;102972.97;;;7.21;47.31
47706;BME280;33471;52.104;1.318;2023-02-28T08:32:14;102967.34;;;7.47;47.31
47706;BME280;33471;52.104;1.318;2023-02-28T08:34:42;102969.18;;;7.10;48.16
47706;BME280;33471;52.104;1.318;2023-02-28T08:37:09;102969.15;;;7.70;47.11
47706;BME280;33471;52.104;1.318;2023-02-28T08:39:36;102963.46;;;8.63;45.23
47706;BME280;33471;52.104;1.318;2023-02-28T08:42:04;102966.88;;;7.96;46.91
47706;BME280;33471;52.104;1.318;2023-02-28T08:44:32;102961.66;;;8.74;45.40
47706;BME280;33471;52.104;1.318;2023-02-28T08:46:59;102964.76;;;8.43;44.83
47706;BME280;33471;52.104;1.318;2023-02-28T08:49:27;102963.54;;;8.80;43.67
47706;BME280;33471;52.104;1.318;2023-02-28T08:51:54;102965.52;;;8.43;45.01
47706;BME280;33471;52.104;1.318;2023-02-28T08:54:21;102965.99;;;8.23;45.67
47706;BME280;33471;52.104;1.318;2023-02-28T08:56:48;102969.56;;;8.06;45.89
47706;BME280;33471;52.104;1.318;2023-02-28T08:59:15;102960.03;;;8.48;45.55
47706;BME280;33471;52.104;1.318;2023-02-28T09:01:43;102970.40;;;7.45;46.99
47706;BME280;33471;52.104;1.318;2023-02-28T09:04:10;102964.92;;;7.17;48.04
47706;BME280;33471;52.104;1.318;2023-02-28T09:06:38;102971.65;;;8.23;47.74
47706;BME280;33471;52.104;1.318;2023-02-28T09:09:06;102968.46;;;7.34;49.34
47706;BME280;33471;52.104;1.318;2023-02-28T09:11:34;102966.49;;;6.73;51.22
47706;BME280;33471;52.104;1.318;2023-02-28T09:14:02;102962.58;;;6.95;50.79
47706;BME280;33471;52.104;1.318;2023-02-28T09:16:30;102964.51;;;6.83;51.49
47706;BME280;33471;52.104;1.318;2023-02-28T09:18:57;102965.53;;;7.64;50.03
47706;BME280;33471;52.104;1.318;2023-02-28T09:21:25;102962.83;;;6.94;51.12
47706;BME280;33471;52.104;1.318;2023-02-28T09:23:53;102965.36;;;7.51;48.75
47706;BME280;33471;52.104;1.318;2023-02-28T09:26:22;102958.08;;;5.94;52.38
47706;BME280;33471;52.104;1.318;2023-02-28T09:28:50;102956.89;;;7.34;49.50
47706;BME280;33471;52.104;1.318;2023-02-28T09:31:20;102951.20;;;7.97;47.93
47706;BME280;33471;52.104;1.318;2023-02-28T09:33:48;102945.60;;;8.46;47.68
47706;BME280;33471;52.104;1.318;2023-02-28T09:36:15;102940.93;;;8.56;47.40
47706;BME280;33471;52.104;1.318;2023-02-28T09:38:47;102944.54;;;8.02;48.33
47706;BME280;33471;52.104;1.318;2023-02-28T09:41:16;102936.94;;;8.04;47.68
47706;BME280;33471;52.104;1.318;2023-02-28T09:43:48;102941.84;;;7.17;50.18
47706;BME280;33471;52.104;1.318;2023-02-28T09:46:27;102936.96;;;6.95;51.30
47706;BME280;33471;52.104;1.318;2023-02-28T09:48:57;102929.03;;;6.71;52.56
47706;BME280;33471;52.104;1.318;2023-02-28T09:51:36;102912.45;;;7.58;51.30
47706;BME280;33471;52.104;1.318;2023-02-28T09:54:08;102893.15;;;6.74;52.80
47706;BME280;33471;52.104;1.318;2023-02-28T09:56:39;102895.39;;;7.60;51.96
47706;BME280;33471;52.104;1.318;2023-02-28T09:59:16;102924.91;;;7.71;50.82
47706;BME280;33471;52.104;1.318;2023-02-28T10:01:50;102946.22;;;7.99;49.66
47706;BME280;33471;52.104;1.318;2023-02-28T10:04:36;102951.79;;;8.19;49.54
47706;BME280;33471;52.104;1.318;2023-02-28T10:07:14;102956.76;;;7.72;51.03
47706;BME280;33471;52.104;1.318;2023-02-28T10:09:45;102947.25;;;8.58;48.89
47706;BME280;33471;52.104;1.318;2023-02-28T10:12:16;102952.68;;;8.43;49.88
47706;BME280;33471;52.104;1.318;2023-02-28T10:14:46;102951.39;;;7.43;51.20
47706;BME280;33471;52.104;1.318;2023-02-28T10:17:21;102943.92;;;7.37;51.95
47706;BME280;33471;52.104;1.318;2023-02-28T10:19:58;102940.07;;;6.77;53.14
47706;BME280;33471;52.104;1.318;2023-02-28T10:22:31;102940.42;;;7.05;52.78
47706;BME280;33471;52.104;1.318;2023-02-28T10:25:00;102936.87;;;5.89;55.41
47706;BME280;33471;52.104;1.318;2023-02-28T10:27:30;102933.50;;;6.44;55.00
47706;BME280;33471;52.104;1.318;2023-02-28T10:30:00;102931.68;;;6.85;53.97
47706;BME280;33471;52.104;1.318;2023-02-28T10:32:30;102936.55;;;7.08;54.19
47706;BME280;33471;52.104;1.318;2023-02-28T10:35:01;102921.13;;;6.37;55.79
47706;BME280;33471;52.104;1.318;2023-02-28T10:37:33;102914.63;;;6.98;55.48
47706;BME280;33471;52.104;1.318;2023-02-28T10:40:01;102909.14;;;7.68;53.73
47706;BME280;33471;52.104;1.318;2023-02-28T10:42:31;102900.12;;;7.52;53.89
47706;BME280;33471;52.104;1.318;2023-02-28T10:45:12;102900.47;;;7.40;53.78
47706;BME280;33471;52.104;1.318;2023-02-28T10:47:51;102898.68;;;7.15;54.69
47706;BME280;33471;52.104;1.318;2023-02-28T10:50:29;102900.84;;;7.65;53.95
47706;BME280;33471;52.104;1.318;2023-02-28T10:53:10;102895.97;;;6.72;55.52
47706;BME280;33471;52.104;1.318;2023-02-28T10:55:41;102900.26;;;6.07;56.39
47706;BME280;33471;52.104;1.318;2023-02-28T10:58:21;102905.15;;;7.76;53.85
47706;BME280;33471;52.104;1.318;2023-02-28T11:00:49;102909.13;;;7.51;52.86
47706;BME280;33471;52.104;1.318;2023-02-28T11:03:28;102904.32;;;8.91;50.33
47706;BME280;33471;52.104;1.318;2023-02-28T11:05:56;102906.48;;;8.61;49.16
47706;BME280;33471;52.104;1.318;2023-02-28T11:08:24;102909.66;;;8.72;49.50
47706;BME280;33471;52.104;1.318;2023-02-28T11:10:55;102910.58;;;8.47;49.58
47706;BME280;33471;52.104;1.318;2023-02-28T11:13:27;102910.13;;;8.12;51.01
47706;BME280;33471;52.104;1.318;2023-02-28T11:15:59;102912.43;;;6.98;55.14
47706;BME280;33471;52.104;1.318;2023-02-28T11:18:29;102909.27;;;7.56;53.14
47706;BME280;33471;52.104;1.318;2023-02-28T11:20:59;102905.59;;;7.74;53.87
47706;BME280;33471;52.104;1.318;2023-02-28T11:23:30;102911.78;;;7.57;53.73
47706;BME280;33471;52.104;1.318;2023-02-28T11:26:02;102900.46;;;8.41;50.93
47706;BME280;33471;52.104;1.318;2023-02-28T11:28:32;102905.78;;;8.56;50.34
47706;BME280;33471;52.104;1.318;2023-02-28T11:31:04;102910.04;;;8.93;49.27
47706;BME280;33471;52.104;1.318;2023-02-28T11:33:41;102913.33;;;8.50;49.89
47706;BME280;33471;52.104;1.318;2023-02-28T11:36:13;102914.83;;;8.19;50.04
47706;BME280;33471;52.104;1.318;2023-02-28T11:38:42;102912.13;;;8.11;49.92
47706;BME280;33471;52.104;1.318;2023-02-28T11:41:19;102914.25;;;8.52;49.58
47706;BME280;33471;52.104;1.318;2023-02-28T11:44:00;102914.39;;;8.23;50.08
47706;BME280;33471;52.104;1.318;2023-02-28T11:46:35;102914.75;;;8.43;49.52
47706;BME280;33471;52.104;1.318;2023-02-28T11:49:17;102925.37;;;7.07;53.60
47706;BME280;33471;52.104;1.318;2023-02-28T11:51:49;102918.86;;;7.00;53.66
47706;BME280;33471;52.104;1.318;2023-02-28T11:54:31;102916.46;;;7.06;54.20
47706;BME280;33471;52.104;1.318;2023-02-28T11:57:09;102911.42;;;7.28;53.64
47706;BME280;33471;52.104;1.318;2023-02-28T11:59:52;102909.86;;;7.23;52.62
47706;BME280;33471;52.104;1.318;2023-02-28T12:02:28;102905.05;;;6.71;54.19
47706;BME280;33471;52.104;1.318;2023-02-28T12:05:24;102898.98;;;6.72;54.18
47706;BME280;33471;52.104;1.318;2023-02-28T12:08:03;102894.77;;;7.07;53.92
47706;BME280;33471;52.104;1.318;2023-02-28T12:10:37;102887.73;;;7.24;54.80
47706;BME280;33471;52.104;1.318;2023-02-28T12:13:18;102877.35;;;7.19;53.98
47706;BME280;33471;52.104;1.318;2023-02-28T12:16:00;102871.82;;;7.13;53.38
47706;BME280;33471;52.104;1.318;2023-02-28T12:18:48;102862.61;;;7.52;52.92
47706;BME280;33471;52.104;1.318;2023-02-28T12:21:24;102866.05;;;6.60;55.51
47706;BME280;33471;52.104;1.318;2023-02-28T12:24:11;102860.66;;;7.49;53.11
47706;BME280;33471;52.104;1.318;2023-02-28T12:26:44;102869.01;;;6.96;53.19
47706;BME280;33471;52.104;1.318;2023-02-28T12:29:16;102860.05;;;7.31;53.07
47706;BME280;33471;52.104;1.318;2023-02-28T12:31:51;102843.46;;;8.10;51.05
47706;BME280;33471;52.104;1.318;2023-02-28T12:34:22;102846.14;;;7.56;52.30
47706;BME280;33471;52.104;1.318;2023-02-28T12:36:53;102841.50;;;8.18;51.63
47706;BME280;33471;52.104;1.318;2023-02-28T12:39:26;102838.78;;;7.87;51.52
47706;BME280;33471;52.104;1.318;2023-02-28T12:42:00;102830.69;;;7.95;51.93
47706;BME280;33471;52.104;1.318;2023-02-28T12:44:32;102829.88;;;7.36;54.26
47706;BME280;33471;52.104;1.318;2023-02-28T12:47:04;102821.90;;;7.26;53.63
47706;BME280;33471;52.104;1.318;2023-02-28T12:49:36;102821.32;;;6.92;55.62
47706;BME280;33471;52.104;1.318;2023-02-28T12:52:06;102811.04;;;7.70;55.17
47706;BME280;33471;52.104;1.318;2023-02-28T12:54:40;102811.12;;;7.69;54.54
47706;BME280;33471;52.104;1.318;2023-02-28T12:57:14;102810.88;;;7.99;53.28
47706;BME280;33471;52.104;1.318;2023-02-28T12:59:50;102809.48;;;8.25;52.13
47706;BME280;33471;52.104;1.318;2023-02-28T13:03:20;102805.92;;;8.19;53.91
47706;BME280;33471;52.104;1.318;2023-02-28T13:06:05;102808.98;;;8.16;51.88
47706;BME280;33471;52.104;1.318;2023-02-28T13:09:01;102809.16;;;8.06;52.97
47706;BME280;33471;52.104;1.318;2023-02-28T13:11:31;102808.17;;;7.76;54.30
47706;BME280;33471;52.104;1.318;2023-02-28T13:14:01;102806.72;;;7.76;54.30
47706;BME280;33471;52.104;1.318;2023-02-28T13:16:50;102809.44;;;7.20;55.33
47706;BME280;33471;52.104;1.318;2023-02-28T13:19:19;102809.72;;;6.98;55.43
47706;BME280;33471;52.104;1.318;2023-02-28T13:21:51;102800.91;;;6.62;56.33